sensor_id;sensor_type;location;lat;lon;timestamp;P1;durP1;ratioP1;P2;durP2;ratioP2
54993;SDS011;40891;47.242;8.648;2023-08-12T00:00:45;5.47;;;3.45;;
54993;SDS011;40891;47.242;8.648;2023-08-12T00:03:10;6.72;;;3.40;;
54993;SDS011;40891;47.242;8.648;2023-08-12T00:05:36;5.57;;;3.40;;
54993;SDS011;40891;47.242;8.648;2023-08-12T00:08:02;6.65;;;3.50;;
54993;SDS011;40891;47.242;8.648;2023-08-12T00:10:27;4.28;;;3.33;;
54993;SDS011;40891;47.242;8.648;2023-08-12T00:12:52;6.60;;;3.70;;
54993;SDS011;40891;47.242;8.648;2023-08-12T00:15:18;5.68;;;3.67;;
54993;SDS011;40891;47.242;8.648;2023-08-12T00:17:43;5.97;;;3.45;;
54993;SDS011;40891;47.242;8.648;2023-08-12T00:20:09;3.83;;;3.30;;
54993;SDS011;40891;47.242;8.648;2023-08-12T00:22:36;7.10;;;3.67;;
54993;SDS011;40891;47.242;8.648;2023-08-12T00:25:01;4.97;;;3.40;;
54993;SDS011;40891;47.242;8.648;2023-08-12T00:27:27;6.25;;;3.55;;
54993;SDS011;40891;47.242;8.648;2023-08-12T00:29:53;7.13;;;3.85;;
54993;SDS011;40891;47.242;8.648;2023-08-12T00:32:18;4.93;;;3.58;;
54993;SDS011;40891;47.242;8.648;2023-08-12T00:34:43;6.50;;;3.47;;
54993;SDS011;40891;47.242;8.648;2023-08-12T00:37:09;7.40;;;3.60;;
54993;SDS011;40891;47.242;8.648;2023-08-12T00:39:34;5.45;;;3.40;;
54993;SDS011;40891;47.242;8.648;2023-08-12T00:42:00;6.75;;;3.55;;
54993;SDS011;40891;47.242;8.648;2023-08-12T00:44:25;6.13;;;3.60;;
54993;SDS011;40891;47.242;8.648;2023-08-12T00:46:51;7.10;;;3.67;;
54993;SDS011;40891;47.242;8.648;2023-08-12T00:49:17;8.00;;;3.92;;
54993;SDS011;40891;47.242;8.648;2023-08-12T00:51:43;10.15;;;5.32;;
54993;SDS011;40891;47.242;8.648;2023-08-12T00:54:14;10.80;;;4.72;;
54993;SDS011;40891;47.242;8.648;2023-08-12T00:56:41;8.55;;;4.75;;
54993;SDS011;40891;47.242;8.648;2023-08-12T00:59:08;7.30;;;4.75;;
54993;SDS011;40891;47.242;8.648;2023-08-12T01:01:35;7.18;;;4.03;;
54993;SDS011;40891;47.242;8.648;2023-08-12T01:04:05;5.15;;;3.97;;
54993;SDS011;40891;47.242;8.648;2023-08-12T01:06:30;6.10;;;4.05;;
54993;SDS011;40891;47.242;8.648;2023-08-12T01:08:56;5.63;;;4.30;;
54993;SDS011;40891;47.242;8.648;2023-08-12T01:11:29;5.53;;;4.00;;
54993;SDS011;40891;47.242;8.648;2023-08-12T01:16:43;5.60;;;3.67;;
54993;SDS011;40891;47.242;8.648;2023-08-12T01:19:11;6.07;;;3.60;;
54993;SDS011;40891;47.242;8.648;2023-08-12T01:21:49;5.78;;;3.42;;
54993;SDS011;40891;47.242;8.648;2023-08-12T01:24:20;4.65;;;4.18;;
54993;SDS011;40891;47.242;8.648;2023-08-12T01:26:46;7.32;;;3.53;;
54993;SDS011;40891;47.242;8.648;2023-08-12T01:29:12;5.15;;;3.65;;
54993;SDS011;40891;47.242;8.648;2023-08-12T01:31:55;5.80;;;3.88;;
54993;SDS011;40891;47.242;8.648;2023-08-12T01:34:33;5.63;;;3.60;;
54993;SDS011;40891;47.242;8.648;2023-08-12T01:37:05;5.72;;;3.55;;
54993;SDS011;40891;47.242;8.648;2023-08-12T01:39:36;6.05;;;4.05;;
54993;SDS011;40891;47.242;8.648;2023-08-12T01:42:03;5.15;;;3.60;;
54993;SDS011;40891;47.242;8.648;2023-08-12T01:44:30;4.75;;;3.72;;
54993;SDS011;40891;47.242;8.648;2023-08-12T01:46:55;5.57;;;3.63;;
54993;SDS011;40891;47.242;8.648;2023-08-12T01:49:20;5.75;;;3.65;;
54993;SDS011;40891;47.242;8.648;2023-08-12T01:51:48;4.93;;;3.60;;
54993;SDS011;40891;47.242;8.648;2023-08-12T01:54:13;4.97;;;3.50;;
54993;SDS011;40891;47.242;8.648;2023-08-12T01:56:38;8.05;;;3.90;;
54993;SDS011;40891;47.242;8.648;2023-08-12T01:59:04;5.60;;;3.42;;
54993;SDS011;40891;47.242;8.648;2023-08-12T02:01:29;6.25;;;4.10;;
54993;SDS011;40891;47.242;8.648;2023-08-12T02:03:54;4.43;;;3.50;;
54993;SDS011;40891;47.242;8.648;2023-08-12T02:06:19;6.68;;;3.67;;
54993;SDS011;40891;47.242;8.648;2023-08-12T02:08:45;4.72;;;3.70;;
54993;SDS011;40891;47.242;8.648;2023-08-12T02:11:10;7.00;;;4.10;;
54993;SDS011;40891;47.242;8.648;2023-08-12T02:13:35;4.28;;;3.70;;
54993;SDS011;40891;47.242;8.648;2023-08-12T02:16:01;10.45;;;3.85;;
54993;SDS011;40891;47.242;8.648;2023-08-12T02:18:26;6.88;;;4.00;;
54993;SDS011;40891;47.242;8.648;2023-08-12T02:20:52;6.70;;;3.80;;
54993;SDS011;40891;47.242;8.648;2023-08-12T02:23:18;4.93;;;3.65;;
54993;SDS011;40891;47.242;8.648;2023-08-12T02:25:43;4.60;;;3.33;;
54993;SDS011;40891;47.242;8.648;2023-08-12T02:28:08;5.18;;;3.70;;
54993;SDS011;40891;47.242;8.648;2023-08-12T02:30:33;9.40;;;3.50;;
54993;SDS011;40891;47.242;8.648;2023-08-12T02:32:59;8.07;;;3.45;;
54993;SDS011;40891;47.242;8.648;2023-08-12T02:35:24;4.32;;;3.63;;
54993;SDS011;40891;47.242;8.648;2023-08-12T02:37:49;5.38;;;3.70;;
54993;SDS011;40891;47.242;8.648;2023-08-12T02:40:15;6.50;;;4.00;;
54993;SDS011;40891;47.242;8.648;2023-08-12T02:42:40;4.60;;;3.55;;
54993;SDS011;40891;47.242;8.648;2023-08-12T02:45:06;6.53;;;3.70;;
54993;SDS011;40891;47.242;8.648;2023-08-12T02:47:31;6.05;;;3.90;;
54993;SDS011;40891;47.242;8.648;2023-08-12T02:49:57;4.57;;;3.50;;
54993;SDS011;40891;47.242;8.648;2023-08-12T02:52:22;5.13;;;3.78;;
54993;SDS011;40891;47.242;8.648;2023-08-12T02:54:47;6.10;;;3.55;;
54993;SDS011;40891;47.242;8.648;2023-08-12T02:57:12;6.07;;;4.10;;
54993;SDS011;40891;47.242;8.648;2023-08-12T02:59:38;6.18;;;3.30;;
54993;SDS011;40891;47.242;8.648;2023-08-12T03:02:03;6.22;;;3.53;;
54993;SDS011;40891;47.242;8.648;2023-08-12T03:04:29;3.78;;;3.38;;
54993;SDS011;40891;47.242;8.648;2023-08-12T03:06:54;5.25;;;4.05;;
54993;SDS011;40891;47.242;8.648;2023-08-12T03:09:19;5.30;;;3.63;;
54993;SDS011;40891;47.242;8.648;2023-08-12T03:11:45;8.80;;;4.25;;
54993;SDS011;40891;47.242;8.648;2023-08-12T03:14:10;8.40;;;3.72;;
54993;SDS011;40891;47.242;8.648;2023-08-12T03:16:35;7.68;;;4.07;;
54993;SDS011;40891;47.242;8.648;2023-08-12T03:19:01;6.10;;;3.65;;
54993;SDS011;40891;47.242;8.648;2023-08-12T03:21:26;4.43;;;3.53;;
54993;SDS011;40891;47.242;8.648;2023-08-12T03:23:51;7.05;;;3.72;;
54993;SDS011;40891;47.242;8.648;2023-08-12T03:26:17;6.45;;;4.50;;
54993;SDS011;40891;47.242;8.648;2023-08-12T03:28:42;4.38;;;3.85;;
54993;SDS011;40891;47.242;8.648;2023-08-12T03:31:07;6.07;;;3.42;;
54993;SDS011;40891;47.242;8.648;2023-08-12T03:33:33;4.13;;;3.47;;
54993;SDS011;40891;47.242;8.648;2023-08-12T03:35:58;6.22;;;3.95;;
54993;SDS011;40891;47.242;8.648;2023-08-12T03:38:24;6.40;;;3.80;;
54993;SDS011;40891;47.242;8.648;2023-08-12T03:40:49;5.75;;;3.65;;
54993;SDS011;40891;47.242;8.648;2023-08-12T03:43:15;5.70;;;3.90;;
54993;SDS011;40891;47.242;8.648;2023-08-12T03:45:41;5.40;;;3.58;;
54993;SDS011;40891;47.242;8.648;2023-08-12T03:48:07;4.43;;;3.85;;
54993;SDS011;40891;47.242;8.648;2023-08-12T03:50:33;6.63;;;4.22;;
54993;SDS011;40891;47.242;8.648;2023-08-12T03:52:59;4.07;;;3.45;;
54993;SDS011;40891;47.242;8.648;2023-08-12T03:55:25;5.78;;;3.78;;
54993;SDS011;40891;47.242;8.648;2023-08-12T03:57:50;5.72;;;3.45;;
54993;SDS011;40891;47.242;8.648;2023-08-12T04:00:16;4.28;;;3.20;;
54993;SDS011;40891;47.242;8.648;2023-08-12T04:02:42;5.30;;;3.78;;
54993;SDS011;40891;47.242;8.648;2023-08-12T04:05:08;4.30;;;3.40;;
54993;SDS011;40891;47.242;8.648;2023-08-12T04:07:35;5.82;;;3.53;;
54993;SDS011;40891;47.242;8.648;2023-08-12T04:10:01;4.40;;;3.58;;
54993;SDS011;40891;47.242;8.648;2023-08-12T04:12:26;7.65;;;3.88;;
54993;SDS011;40891;47.242;8.648;2023-08-12T04:14:51;4.97;;;3.70;;
54993;SDS011;40891;47.242;8.648;2023-08-12T04:17:17;7.05;;;3.70;;
54993;SDS011;40891;47.242;8.648;2023-08-12T04:19:42;6.85;;;3.50;;
54993;SDS011;40891;47.242;8.648;2023-08-12T04:22:07;5.07;;;4.35;;
54993;SDS011;40891;47.242;8.648;2023-08-12T04:24:32;10.50;;;4.10;;
54993;SDS011;40891;47.242;8.648;2023-08-12T04:26:58;7.72;;;3.80;;
54993;SDS011;40891;47.242;8.648;2023-08-12T04:29:23;6.47;;;3.80;;
54993;SDS011;40891;47.242;8.648;2023-08-12T04:31:48;5.68;;;3.85;;
54993;SDS011;40891;47.242;8.648;2023-08-12T04:34:14;6.72;;;4.32;;
54993;SDS011;40891;47.242;8.648;2023-08-12T04:36:39;5.50;;;4.05;;
54993;SDS011;40891;47.242;8.648;2023-08-12T04:39:04;7.50;;;3.95;;
54993;SDS011;40891;47.242;8.648;2023-08-12T04:41:30;5.28;;;4.40;;
54993;SDS011;40891;47.242;8.648;2023-08-12T04:43:55;6.60;;;3.70;;
54993;SDS011;40891;47.242;8.648;2023-08-12T04:46:20;5.15;;;3.95;;
54993;SDS011;40891;47.242;8.648;2023-08-12T04:48:45;6.40;;;4.53;;
54993;SDS011;40891;47.242;8.648;2023-08-12T04:51:11;6.65;;;3.70;;
54993;SDS011;40891;47.242;8.648;2023-08-12T04:53:36;4.93;;;4.03;;
54993;SDS011;40891;47.242;8.648;2023-08-12T04:56:01;4.43;;;3.67;;
54993;SDS011;40891;47.242;8.648;2023-08-12T04:58:27;7.22;;;3.88;;
54993;SDS011;40891;47.242;8.648;2023-08-12T05:00:52;7.25;;;4.05;;
54993;SDS011;40891;47.242;8.648;2023-08-12T05:03:17;7.78;;;4.10;;
54993;SDS011;40891;47.242;8.648;2023-08-12T05:05:43;5.68;;;3.85;;
54993;SDS011;40891;47.242;8.648;2023-08-12T05:08:08;7.07;;;3.65;;
54993;SDS011;40891;47.242;8.648;2023-08-12T05:10:33;5.32;;;3.95;;
54993;SDS011;40891;47.242;8.648;2023-08-12T05:12:58;5.70;;;3.33;;
54993;SDS011;40891;47.242;8.648;2023-08-12T05:15:24;6.22;;;4.20;;
54993;SDS011;40891;47.242;8.648;2023-08-12T05:17:49;4.05;;;3.60;;
54993;SDS011;40891;47.242;8.648;2023-08-12T05:20:14;5.60;;;3.70;;
54993;SDS011;40891;47.242;8.648;2023-08-12T05:22:40;5.60;;;3.95;;
54993;SDS011;40891;47.242;8.648;2023-08-12T05:25:05;4.00;;;3.60;;
54993;SDS011;40891;47.242;8.648;2023-08-12T05:27:31;6.28;;;3.35;;
54993;SDS011;40891;47.242;8.648;2023-08-12T05:29:56;7.88;;;4.20;;
54993;SDS011;40891;47.242;8.648;2023-08-12T05:32:21;5.93;;;3.65;;
54993;SDS011;40891;47.242;8.648;2023-08-12T05:34:49;5.68;;;3.42;;
54993;SDS011;40891;47.242;8.648;2023-08-12T05:37:15;5.07;;;3.72;;
54993;SDS011;40891;47.242;8.648;2023-08-12T05:39:40;5.75;;;3.70;;
54993;SDS011;40891;47.242;8.648;2023-08-12T05:42:05;8.38;;;3.92;;
54993;SDS011;40891;47.242;8.648;2023-08-12T05:44:31;5.72;;;3.70;;
54993;SDS011;40891;47.242;8.648;2023-08-12T05:46:56;4.75;;;3.35;;
54993;SDS011;40891;47.242;8.648;2023-08-12T05:49:21;7.10;;;3.70;;
54993;SDS011;40891;47.242;8.648;2023-08-12T05:51:47;8.77;;;3.90;;
54993;SDS011;40891;47.242;8.648;2023-08-12T05:54:12;7.85;;;3.67;;
54993;SDS011;40891;47.242;8.648;2023-08-12T05:56:38;6.47;;;3.63;;
54993;SDS011;40891;47.242;8.648;2023-08-12T05:59:03;3.88;;;3.47;;
54993;SDS011;40891;47.242;8.648;2023-08-12T06:01:28;4.70;;;3.85;;
54993;SDS011;40891;47.242;8.648;2023-08-12T06:03:54;6.28;;;3.47;;
54993;SDS011;40891;47.242;8.648;2023-08-12T06:06:19;8.18;;;3.50;;
54993;SDS011;40891;47.242;8.648;2023-08-12T06:08:44;6.30;;;3.80;;
54993;SDS011;40891;47.242;8.648;2023-08-12T06:11:10;5.60;;;3.47;;
54993;SDS011;40891;47.242;8.648;2023-08-12T06:13:35;5.75;;;3.80;;
54993;SDS011;40891;47.242;8.648;2023-08-12T06:16:00;6.47;;;3.80;;
54993;SDS011;40891;47.242;8.648;2023-08-12T06:18:26;6.32;;;3.42;;
54993;SDS011;40891;47.242;8.648;2023-08-12T06:20:51;7.82;;;3.42;;
54993;SDS011;40891;47.242;8.648;2023-08-12T06:23:16;5.95;;;3.75;;
54993;SDS011;40891;47.242;8.648;2023-08-12T06:25:42;5.15;;;3.67;;
54993;SDS011;40891;47.242;8.648;2023-08-12T06:28:08;3.88;;;3.30;;
54993;SDS011;40891;47.242;8.648;2023-08-12T06:30:34;5.35;;;3.47;;
54993;SDS011;40891;47.242;8.648;2023-08-12T06:32:59;4.35;;;3.70;;
54993;SDS011;40891;47.242;8.648;2023-08-12T06:35:24;7.55;;;3.45;;
54993;SDS011;40891;47.242;8.648;2023-08-12T06:37:50;8.93;;;3.90;;
54993;SDS011;40891;47.242;8.648;2023-08-12T06:40:15;4.85;;;3.58;;
54993;SDS011;40891;47.242;8.648;2023-08-12T06:42:40;6.40;;;3.78;;
54993;SDS011;40891;47.242;8.648;2023-08-12T06:45:06;5.05;;;3.60;;
54993;SDS011;40891;47.242;8.648;2023-08-12T06:47:32;4.25;;;3.50;;
54993;SDS011;40891;47.242;8.648;2023-08-12T06:49:57;6.97;;;3.30;;
54993;SDS011;40891;47.242;8.648;2023-08-12T06:52:23;5.60;;;3.53;;
54993;SDS011;40891;47.242;8.648;2023-08-12T06:54:48;6.25;;;3.83;;
54993;SDS011;40891;47.242;8.648;2023-08-12T06:57:13;5.78;;;3.72;;
54993;SDS011;40891;47.242;8.648;2023-08-12T06:59:39;5.65;;;3.42;;
54993;SDS011;40891;47.242;8.648;2023-08-12T07:02:04;7.07;;;3.55;;
54993;SDS011;40891;47.242;8.648;2023-08-12T07:04:31;4.75;;;3.60;;
54993;SDS011;40891;47.242;8.648;2023-08-12T07:06:56;7.32;;;3.25;;
54993;SDS011;40891;47.242;8.648;2023-08-12T07:09:22;3.47;;;3.17;;
54993;SDS011;40891;47.242;8.648;2023-08-12T07:11:47;5.47;;;3.58;;
54993;SDS011;40891;47.242;8.648;2023-08-12T07:14:12;5.85;;;3.45;;
54993;SDS011;40891;47.242;8.648;2023-08-12T07:16:37;6.32;;;3.25;;
54993;SDS011;40891;47.242;8.648;2023-08-12T07:19:03;4.43;;;3.40;;
54993;SDS011;40891;47.242;8.648;2023-08-12T07:21:28;4.25;;;3.33;;
54993;SDS011;40891;47.242;8.648;2023-08-12T07:23:53;8.20;;;3.33;;
54993;SDS011;40891;47.242;8.648;2023-08-12T07:26:19;5.30;;;3.67;;
54993;SDS011;40891;47.242;8.648;2023-08-12T07:28:44;5.47;;;3.22;;
54993;SDS011;40891;47.242;8.648;2023-08-12T07:31:09;5.10;;;3.65;;
54993;SDS011;40891;47.242;8.648;2023-08-12T07:33:35;9.05;;;3.80;;
54993;SDS011;40891;47.242;8.648;2023-08-12T07:36:01;5.20;;;3.50;;
54993;SDS011;40891;47.242;8.648;2023-08-12T07:38:27;6.65;;;3.83;;
54993;SDS011;40891;47.242;8.648;2023-08-12T07:40:52;5.45;;;3.47;;
54993;SDS011;40891;47.242;8.648;2023-08-12T07:43:18;11.13;;;3.55;;
54993;SDS011;40891;47.242;8.648;2023-08-12T07:45:43;5.28;;;3.20;;
54993;SDS011;40891;47.242;8.648;2023-08-12T07:48:08;5.03;;;3.03;;
54993;SDS011;40891;47.242;8.648;2023-08-12T07:50:34;4.03;;;2.97;;
54993;SDS011;40891;47.242;8.648;2023-08-12T07:52:59;4.03;;;3.30;;
54993;SDS011;40891;47.242;8.648;2023-08-12T07:55:25;4.80;;;3.50;;
54993;SDS011;40891;47.242;8.648;2023-08-12T07:57:50;8.52;;;3.22;;
54993;SDS011;40891;47.242;8.648;2023-08-12T08:00:15;4.05;;;3.05;;
54993;SDS011;40891;47.242;8.648;2023-08-12T08:02:41;4.28;;;3.20;;
54993;SDS011;40891;47.242;8.648;2023-08-12T08:05:07;4.68;;;3.30;;
54993;SDS011;40891;47.242;8.648;2023-08-12T08:07:32;4.30;;;3.13;;
54993;SDS011;40891;47.242;8.648;2023-08-12T08:09:57;7.30;;;3.58;;
54993;SDS011;40891;47.242;8.648;2023-08-12T08:12:23;4.00;;;3.45;;
54993;SDS011;40891;47.242;8.648;2023-08-12T08:14:48;4.13;;;3.20;;
54993;SDS011;40891;47.242;8.648;2023-08-12T08:17:14;5.13;;;3.47;;
54993;SDS011;40891;47.242;8.648;2023-08-12T08:19:39;7.78;;;3.33;;
54993;SDS011;40891;47.242;8.648;2023-08-12T08:22:04;4.45;;;3.40;;
54993;SDS011;40891;47.242;8.648;2023-08-12T08:24:30;4.60;;;3.20;;
54993;SDS011;40891;47.242;8.648;2023-08-12T08:26:55;6.45;;;3.10;;
54993;SDS011;40891;47.242;8.648;2023-08-12T08:29:21;4.35;;;3.38;;
54993;SDS011;40891;47.242;8.648;2023-08-12T08:31:46;6.30;;;2.72;;
54993;SDS011;40891;47.242;8.648;2023-08-12T08:34:12;4.53;;;3.38;;
54993;SDS011;40891;47.242;8.648;2023-08-12T08:36:37;4.47;;;3.53;;
54993;SDS011;40891;47.242;8.648;2023-08-12T08:39:03;7.95;;;3.28;;
54993;SDS011;40891;47.242;8.648;2023-08-12T08:41:30;6.32;;;3.10;;
54993;SDS011;40891;47.242;8.648;2023-08-12T08:43:59;4.18;;;3.13;;
54993;SDS011;40891;47.242;8.648;2023-08-12T08:46:27;7.18;;;2.72;;
54993;SDS011;40891;47.242;8.648;2023-08-12T08:48:53;4.32;;;3.05;;
54993;SDS011;40891;47.242;8.648;2023-08-12T08:51:20;6.38;;;3.50;;
54993;SDS011;40891;47.242;8.648;2023-08-12T08:53:45;5.28;;;2.97;;
54993;SDS011;40891;47.242;8.648;2023-08-12T08:56:12;6.70;;;3.40;;
54993;SDS011;40891;47.242;8.648;2023-08-12T08:58:38;4.95;;;3.20;;
54993;SDS011;40891;47.242;8.648;2023-08-12T09:01:04;3.85;;;3.10;;
54993;SDS011;40891;47.242;8.648;2023-08-12T09:03:31;6.57;;;3.67;;
54993;SDS011;40891;47.242;8.648;2023-08-12T09:05:58;4.38;;;3.08;;
54993;SDS011;40891;47.242;8.648;2023-08-12T09:08:24;6.05;;;3.03;;
54993;SDS011;40891;47.242;8.648;2023-08-12T09:10:52;4.18;;;3.03;;
54993;SDS011;40891;47.242;8.648;2023-08-12T09:13:18;5.53;;;3.03;;
54993;SDS011;40891;47.242;8.648;2023-08-12T09:15:44;4.28;;;3.22;;
54993;SDS011;40891;47.242;8.648;2023-08-12T09:18:09;5.20;;;3.03;;
54993;SDS011;40891;47.242;8.648;2023-08-12T09:20:34;5.20;;;3.38;;
54993;SDS011;40891;47.242;8.648;2023-08-12T09:23:00;6.15;;;3.28;;
54993;SDS011;40891;47.242;8.648;2023-08-12T09:25:29;4.68;;;3.65;;
54993;SDS011;40891;47.242;8.648;2023-08-12T09:27:55;5.55;;;3.05;;
54993;SDS011;40891;47.242;8.648;2023-08-12T09:30:23;5.60;;;3.15;;
54993;SDS011;40891;47.242;8.648;2023-08-12T09:32:58;3.60;;;3.10;;
54993;SDS011;40891;47.242;8.648;2023-08-12T09:35:46;6.63;;;3.58;;
54993;SDS011;40891;47.242;8.648;2023-08-12T09:38:12;4.40;;;3.22;;
54993;SDS011;40891;47.242;8.648;2023-08-12T09:40:38;5.65;;;3.08;;
54993;SDS011;40891;47.242;8.648;2023-08-12T09:43:04;3.42;;;3.00;;
54993;SDS011;40891;47.242;8.648;2023-08-12T09:45:30;6.32;;;3.38;;
54993;SDS011;40891;47.242;8.648;2023-08-12T09:47:57;6.25;;;3.70;;
54993;SDS011;40891;47.242;8.648;2023-08-12T09:50:24;5.80;;;3.38;;
54993;SDS011;40891;47.242;8.648;2023-08-12T09:52:51;5.25;;;3.40;;
54993;SDS011;40891;47.242;8.648;2023-08-12T09:55:18;5.53;;;3.33;;
54993;SDS011;40891;47.242;8.648;2023-08-12T09:57:45;5.65;;;3.42;;
54993;SDS011;40891;47.242;8.648;2023-08-12T10:00:13;5.78;;;3.30;;
54993;SDS011;40891;47.242;8.648;2023-08-12T10:02:43;6.20;;;3.15;;
54993;SDS011;40891;47.242;8.648;2023-08-12T10:05:11;5.53;;;3.20;;
54993;SDS011;40891;47.242;8.648;2023-08-12T10:07:38;5.25;;;3.17;;
54993;SDS011;40891;47.242;8.648;2023-08-12T10:10:05;5.85;;;3.13;;
54993;SDS011;40891;47.242;8.648;2023-08-12T10:12:32;4.72;;;3.00;;
54993;SDS011;40891;47.242;8.648;2023-08-12T10:14:58;4.30;;;3.20;;
54993;SDS011;40891;47.242;8.648;2023-08-12T10:17:25;4.88;;;2.75;;
54993;SDS011;40891;47.242;8.648;2023-08-12T10:19:54;5.13;;;3.08;;
54993;SDS011;40891;47.242;8.648;2023-08-12T10:22:21;4.55;;;2.70;;
54993;SDS011;40891;47.242;8.648;2023-08-12T10:24:47;5.22;;;3.00;;
54993;SDS011;40891;47.242;8.648;2023-08-12T10:27:14;6.03;;;2.83;;
54993;SDS011;40891;47.242;8.648;2023-08-12T10:29:42;9.23;;;3.53;;
54993;SDS011;40891;47.242;8.648;2023-08-12T10:32:08;4.07;;;3.08;;
54993;SDS011;40891;47.242;8.648;2023-08-12T10:34:34;6.50;;;2.70;;
54993;SDS011;40891;47.242;8.648;2023-08-12T10:37:02;4.85;;;3.15;;
54993;SDS011;40891;47.242;8.648;2023-08-12T10:39:28;5.72;;;2.88;;
54993;SDS011;40891;47.242;8.648;2023-08-12T10:41:57;4.63;;;3.40;;
54993;SDS011;40891;47.242;8.648;2023-08-12T10:44:26;5.85;;;3.38;;
54993;SDS011;40891;47.242;8.648;2023-08-12T10:47:05;3.45;;;2.90;;
54993;SDS011;40891;47.242;8.648;2023-08-12T10:49:36;7.50;;;3.20;;
54993;SDS011;40891;47.242;8.648;2023-08-12T10:52:03;4.30;;;3.10;;
54993;SDS011;40891;47.242;8.648;2023-08-12T10:54:29;11.13;;;3.42;;
54993;SDS011;40891;47.242;8.648;2023-08-12T11:02:30;7.75;;;3.90;;
54993;SDS011;40891;47.242;8.648;2023-08-12T11:05:05;6.60;;;3.60;;
54993;SDS011;40891;47.242;8.648;2023-08-12T11:07:34;5.18;;;3.40;;
54993;SDS011;40891;47.242;8.648;2023-08-12T11:10:13;5.13;;;3.50;;
54993;SDS011;40891;47.242;8.648;2023-08-12T11:12:39;5.43;;;4.13;;
54993;SDS011;40891;47.242;8.648;2023-08-12T11:15:06;6.05;;;3.63;;
54993;SDS011;40891;47.242;8.648;2023-08-12T11:17:36;5.65;;;3.75;;
54993;SDS011;40891;47.242;8.648;2023-08-12T11:20:06;10.25;;;3.80;;
54993;SDS011;40891;47.242;8.648;2023-08-12T11:22:35;10.27;;;4.90;;
54993;SDS011;40891;47.242;8.648;2023-08-12T11:25:06;6.45;;;4.38;;
54993;SDS011;40891;47.242;8.648;2023-08-12T11:27:43;9.32;;;4.70;;
54993;SDS011;40891;47.242;8.648;2023-08-12T11:30:11;7.70;;;4.05;;
54993;SDS011;40891;47.242;8.648;2023-08-12T11:32:40;7.93;;;4.65;;
54993;SDS011;40891;47.242;8.648;2023-08-12T11:35:16;9.93;;;4.75;;
54993;SDS011;40891;47.242;8.648;2023-08-12T11:37:44;5.50;;;4.50;;
54993;SDS011;40891;47.242;8.648;2023-08-12T11:40:12;4.15;;;3.75;;
54993;SDS011;40891;47.242;8.648;2023-08-12T11:42:40;4.97;;;3.75;;
54993;SDS011;40891;47.242;8.648;2023-08-12T11:45:07;8.73;;;3.70;;
54993;SDS011;40891;47.242;8.648;2023-08-12T11:47:36;8.10;;;4.47;;
54993;SDS011;40891;47.242;8.648;2023-08-12T11:50:06;4.68;;;3.90;;
54993;SDS011;40891;47.242;8.648;2023-08-12T11:52:34;6.88;;;3.80;;
54993;SDS011;40891;47.242;8.648;2023-08-12T11:55:00;5.18;;;3.60;;
54993;SDS011;40891;47.242;8.648;2023-08-12T11:57:26;6.82;;;3.55;;
54993;SDS011;40891;47.242;8.648;2023-08-12T11:59:58;4.28;;;3.75;;
54993;SDS011;40891;47.242;8.648;2023-08-12T12:02:24;4.95;;;3.30;;
54993;SDS011;40891;47.242;8.648;2023-08-12T12:04:51;4.80;;;3.30;;
54993;SDS011;40891;47.242;8.648;2023-08-12T12:07:17;5.15;;;3.33;;
54993;SDS011;40891;47.242;8.648;2023-08-12T12:09:51;6.47;;;3.58;;
54993;SDS011;40891;47.242;8.648;2023-08-12T12:12:18;7.85;;;3.60;;
54993;SDS011;40891;47.242;8.648;2023-08-12T12:14:46;5.00;;;3.53;;
54993;SDS011;40891;47.242;8.648;2023-08-12T12:17:14;6.63;;;3.60;;
54993;SDS011;40891;47.242;8.648;2023-08-12T12:19:40;5.65;;;3.83;;
54993;SDS011;40891;47.242;8.648;2023-08-12T12:22:06;4.35;;;3.17;;
54993;SDS011;40891;47.242;8.648;2023-08-12T12:24:31;5.05;;;3.50;;
54993;SDS011;40891;47.242;8.648;2023-08-12T12:27:09;3.72;;;2.90;;
54993;SDS011;40891;47.242;8.648;2023-08-12T12:29:34;7.28;;;3.17;;
54993;SDS011;40891;47.242;8.648;2023-08-12T12:31:59;4.82;;;3.67;;
54993;SDS011;40891;47.242;8.648;2023-08-12T12:34:24;5.57;;;3.47;;
54993;SDS011;40891;47.242;8.648;2023-08-12T12:36:50;3.50;;;2.83;;
54993;SDS011;40891;47.242;8.648;2023-08-12T12:39:15;5.60;;;2.95;;
54993;SDS011;40891;47.242;8.648;2023-08-12T12:41:40;4.38;;;2.88;;
54993;SDS011;40891;47.242;8.648;2023-08-12T12:44:06;4.40;;;2.88;;
54993;SDS011;40891;47.242;8.648;2023-08-12T12:46:31;3.58;;;3.28;;
54993;SDS011;40891;47.242;8.648;2023-08-12T12:48:56;4.03;;;2.97;;
54993;SDS011;40891;47.242;8.648;2023-08-12T12:51:22;5.13;;;3.25;;
54993;SDS011;40891;47.242;8.648;2023-08-12T12:53:47;3.40;;;3.10;;
54993;SDS011;40891;47.242;8.648;2023-08-12T12:56:12;3.80;;;3.28;;
54993;SDS011;40891;47.242;8.648;2023-08-12T12:58:38;3.67;;;3.28;;
54993;SDS011;40891;47.242;8.648;2023-08-12T13:01:04;6.18;;;2.80;;
54993;SDS011;40891;47.242;8.648;2023-08-12T13:03:30;3.03;;;2.70;;
54993;SDS011;40891;47.242;8.648;2023-08-12T13:05:56;4.75;;;4.30;;
54993;SDS011;40891;47.242;8.648;2023-08-12T13:08:22;5.35;;;3.08;;
54993;SDS011;40891;47.242;8.648;2023-08-12T13:10:47;5.20;;;3.17;;
54993;SDS011;40891;47.242;8.648;2023-08-12T13:13:14;7.47;;;3.00;;
54993;SDS011;40891;47.242;8.648;2023-08-12T13:15:43;5.32;;;3.10;;
54993;SDS011;40891;47.242;8.648;2023-08-12T13:18:09;3.47;;;3.05;;
54993;SDS011;40891;47.242;8.648;2023-08-12T13:20:35;3.83;;;2.95;;
54993;SDS011;40891;47.242;8.648;2023-08-12T13:23:01;3.83;;;2.78;;
54993;SDS011;40891;47.242;8.648;2023-08-12T13:25:30;3.67;;;2.80;;
54993;SDS011;40891;47.242;8.648;2023-08-12T13:27:57;4.13;;;2.67;;
54993;SDS011;40891;47.242;8.648;2023-08-12T13:30:23;2.65;;;2.45;;
54993;SDS011;40891;47.242;8.648;2023-08-12T13:32:48;6.18;;;2.83;;
54993;SDS011;40891;47.242;8.648;2023-08-12T13:35:13;3.53;;;2.78;;
54993;SDS011;40891;47.242;8.648;2023-08-12T13:37:39;3.28;;;2.53;;
54993;SDS011;40891;47.242;8.648;2023-08-12T13:40:05;2.97;;;2.67;;
54993;SDS011;40891;47.242;8.648;2023-08-12T13:42:30;5.35;;;2.90;;
54993;SDS011;40891;47.242;8.648;2023-08-12T13:44:56;6.22;;;3.20;;
54993;SDS011;40891;47.242;8.648;2023-08-12T13:47:21;4.13;;;2.55;;
54993;SDS011;40891;47.242;8.648;2023-08-12T13:49:46;8.18;;;3.13;;
54993;SDS011;40891;47.242;8.648;2023-08-12T13:52:12;3.97;;;3.30;;
54993;SDS011;40891;47.242;8.648;2023-08-12T13:54:37;4.95;;;2.92;;
54993;SDS011;40891;47.242;8.648;2023-08-12T13:57:02;3.70;;;2.72;;
54993;SDS011;40891;47.242;8.648;2023-08-12T13:59:29;3.05;;;2.63;;
54993;SDS011;40891;47.242;8.648;2023-08-12T14:01:54;4.50;;;2.58;;
54993;SDS011;40891;47.242;8.648;2023-08-12T14:04:19;3.17;;;2.08;;
54993;SDS011;40891;47.242;8.648;2023-08-12T14:06:45;5.65;;;2.35;;
54993;SDS011;40891;47.242;8.648;2023-08-12T14:09:11;3.67;;;2.58;;
54993;SDS011;40891;47.242;8.648;2023-08-12T14:11:39;3.63;;;2.30;;
54993;SDS011;40891;47.242;8.648;2023-08-12T14:14:05;3.92;;;2.63;;
54993;SDS011;40891;47.242;8.648;2023-08-12T14:16:30;5.45;;;2.80;;
54993;SDS011;40891;47.242;8.648;2023-08-12T14:18:55;3.35;;;2.67;;
54993;SDS011;40891;47.242;8.648;2023-08-12T14:21:21;2.90;;;2.65;;
54993;SDS011;40891;47.242;8.648;2023-08-12T14:23:46;2.95;;;2.65;;
54993;SDS011;40891;47.242;8.648;2023-08-12T14:26:11;4.68;;;2.60;;
54993;SDS011;40891;47.242;8.648;2023-08-12T14:28:37;2.70;;;2.50;;
54993;SDS011;40891;47.242;8.648;2023-08-12T14:31:02;2.83;;;2.55;;
54993;SDS011;40891;47.242;8.648;2023-08-12T14:33:28;2.83;;;2.40;;
54993;SDS011;40891;47.242;8.648;2023-08-12T14:35:54;3.35;;;2.42;;
54993;SDS011;40891;47.242;8.648;2023-08-12T14:38:22;5.78;;;2.60;;
54993;SDS011;40891;47.242;8.648;2023-08-12T14:40:48;3.20;;;2.47;;
54993;SDS011;40891;47.242;8.648;2023-08-12T14:43:13;4.68;;;2.40;;
54993;SDS011;40891;47.242;8.648;2023-08-12T14:45:38;2.72;;;2.40;;
54993;SDS011;40891;47.242;8.648;2023-08-12T14:48:04;2.67;;;2.25;;
54993;SDS011;40891;47.242;8.648;2023-08-12T14:50:29;3.47;;;2.30;;